Time;durP1;ratioP1;P1;durP2;ratioP2;P2;SDS_P1;SDS_P2;PMS_P1;PMS_P2;Temp;Humidity;BMP_temperature;BMP_pressure;BME280_temperature;BME280_humidity;BME280_pressure;Samples;Min_cycle;Max_cycle;Signal;HPM_P1;HPM_P2
2022/03/06 00:01:54;;;;;;;5.50;4.78;;;;;;;-1.63;100.00;98927.56;10423293;28;20095;-55
2022/03/06 00:07:00;;;;;;;5.68;4.40;;;;;;;-1.59;100.00;98928.25;10427934;28;20037;-59
2022/03/06 00:12:03;;;;;;;5.97;4.63;;;;;;;-1.60;100.00;98924.78;10412365;28;20210;-61
2022/03/06 00:17:06;;;;;;;6.07;4.80;;;;;;;-1.62;100.00;98923.97;10416400;28;20052;-58
2022/03/06 00:22:11;;;;;;;5.28;4.78;;;;;;;-1.58;100.00;98925.53;10420365;28;20144;-59
2022/03/06 00:27:14;;;;;;;5.53;4.38;;;;;;;-1.57;100.00;98927.25;10425465;28;20037;-58
2022/03/06 00:32:18;;;;;;;5.35;4.63;;;;;;;-1.60;100.00;98926.53;10420670;28;20123;-58
2022/03/06 00:37:24;;;;;;;6.90;5.18;;;;;;;-1.74;100.00;98925.41;10425251;28;20056;-61
2022/03/06 00:42:27;;;;;;;6.25;4.93;;;;;;;-1.75;100.00;98925.47;10418651;28;20103;-58
2022/03/06 00:47:31;;;;;;;5.45;4.78;;;;;;;-1.82;100.00;98929.34;10420101;28;20044;-54
2022/03/06 00:52:36;;;;;;;5.75;4.57;;;;;;;-1.89;100.00;98929.59;10412254;28;20049;-59
2022/03/06 00:57:39;;;;;;;6.75;4.78;;;;;;;-1.98;100.00;98929.16;10426419;28;20048;-57
2022/03/06 01:02:42;;;;;;;5.60;4.88;;;;;;;-2.07;100.00;98933.09;10418090;28;21233;-58
2022/03/06 01:07:47;;;;;;;7.30;5.40;;;;;;;-2.12;100.00;98929.78;10414405;28;20056;-57
2022/03/06 01:12:50;;;;;;;6.00;5.30;;;;;;;-2.20;100.00;98933.63;10419055;28;20041;-54
2022/03/06 01:17:53;;;;;;;6.57;5.00;;;;;;;-2.25;100.00;98940.91;10412427;28;20063;-58
2022/03/06 01:22:57;;;;;;;6.05;5.28;;;;;;;-2.30;100.00;98936.75;10416313;28;20846;-57
2022/03/06 01:28:01;;;;;;;6.13;5.28;;;;;;;-2.37;100.00;98930.88;10423845;28;20045;-59
2022/03/06 01:33:04;;;;;;;6.45;5.45;;;;;;;-2.44;100.00;98932.06;10422981;28;20057;-56
2022/03/06 01:38:08;;;;;;;6.38;4.95;;;;;;;-2.49;100.00;98932.28;10409335;28;20073;-59
2022/03/06 01:43:11;;;;;;;5.93;5.22;;;;;;;-2.55;100.00;98938.69;10427907;28;20079;-58
2022/03/06 01:48:15;;;;;;;6.70;5.55;;;;;;;-2.63;100.00;98935.50;10424219;28;20400;-58
2022/03/06 01:53:20;;;;;;;7.07;5.53;;;;;;;-2.68;100.00;98932.22;10424598;28;20055;-57
2022/03/06 01:58:23;;;;;;;7.32;5.85;;;;;;;-2.77;100.00;98937.88;10421752;28;20072;-56
2022/03/06 02:03:26;;;;;;;7.70;5.93;;;;;;;-2.81;100.00;98932.72;10424399;28;20056;-59
2022/03/06 02:08:31;;;;;;;6.95;5.97;;;;;;;-2.84;100.00;98938.13;10428248;28;20045;-57
2022/03/06 02:13:34;;;;;;;9.35;6.15;;;;;;;-2.85;100.00;98925.00;10427257;28;20055;-60
2022/03/06 02:18:37;;;;;;;7.00;5.90;;;;;;;-2.89;100.00;98932.19;10427647;28;20391;-59
2022/03/06 02:23:42;;;;;;;6.75;5.95;;;;;;;-2.94;100.00;98932.34;10424613;28;20046;-60
2022/03/06 02:28:45;;;;;;;7.47;6.05;;;;;;;-2.96;100.00;98928.09;10423308;28;20174;-60
2022/03/06 02:33:48;;;;;;;6.63;5.93;;;;;;;-2.98;100.00;98929.91;10427853;28;20069;-60
2022/03/06 02:38:52;;;;;;;7.40;5.95;;;;;;;-2.99;100.00;98923.81;10422920;28;20060;-60
2022/03/06 02:43:55;;;;;;;7.30;6.60;;;;;;;-3.01;100.00;98920.38;10426658;28;20041;-60
2022/03/06 02:48:59;;;;;;;7.85;6.50;;;;;;;-2.99;100.00;98928.19;10432150;28;20453;-58
2022/03/06 02:54:29;;;;;;;7.30;6.57;;;;;;;-2.96;100.00;98928.09;10420788;28;20049;-61
2022/03/06 02:59:35;;;;;;;7.28;6.57;;;;;;;-2.97;100.00;98921.09;10424895;28;20047;-61
2022/03/06 03:04:39;;;;;;;6.70;6.07;;;;;;;-2.94;100.00;98926.25;10423040;28;20048;-58
2022/03/06 03:09:44;;;;;;;7.40;6.65;;;;;;;-2.94;100.00;98921.81;10419203;28;20051;-60
2022/03/06 03:14:47;;;;;;;10.32;6.75;;;;;;;-2.96;100.00;98926.31;10413945;28;20094;-58
2022/03/06 03:19:50;;;;;;;8.18;6.43;;;;;;;-2.93;100.00;98917.41;10414447;28;20049;-61
2022/03/06 03:24:54;;;;;;;8.07;7.03;;;;;;;-2.92;100.00;98929.69;10421669;28;20049;-57
2022/03/06 03:29:57;;;;;;;8.57;6.47;;;;;;;-2.89;100.00;98931.31;10457193;28;20045;-60
2022/03/06 03:35:00;;;;;;;7.70;6.90;;;;;;;-2.86;100.00;98939.97;10455347;28;20056;-60
2022/03/06 03:40:07;;;;;;;8.20;7.22;;;;;;;-2.81;100.00;98945.91;10449694;28;20509;-59
2022/03/06 03:45:10;;;;;;;10.10;7.70;;;;;;;-2.75;100.00;98951.84;10426040;28;20390;-59
2022/03/06 03:50:13;;;;;;;8.93;7.25;;;;;;;-2.70;100.00;98944.59;10418354;28;20057;-57
2022/03/06 03:55:18;;;;;;;9.73;8.00;;;;;;;-2.66;100.00;98939.13;10425999;28;20060;-56
2022/03/06 04:00:21;;;;;;;9.90;8.60;;;;;;;-2.61;100.00;98952.13;10415537;28;20041;-56
2022/03/06 04:05:24;;;;;;;11.32;8.40;;;;;;;-2.57;100.00;98955.47;10419738;28;20053;-59
2022/03/06 04:10:29;;;;;;;8.48;7.60;;;;;;;-2.52;100.00;98956.16;10422583;28;20052;-54
2022/03/06 04:15:32;;;;;;;8.65;7.72;;;;;;;-2.46;100.00;98944.47;10421122;28;20124;-60
2022/03/06 04:20:35;;;;;;;8.43;7.18;;;;;;;-2.42;100.00;98956.63;10420359;28;20047;-56
2022/03/06 04:25:40;;;;;;;7.97;7.18;;;;;;;-2.39;100.00;98953.81;10421910;28;20403;-58
2022/03/06 04:30:43;;;;;;;9.82;7.47;;;;;;;-2.34;100.00;98959.78;10422271;28;20042;-58
2022/03/06 04:35:46;;;;;;;8.15;7.05;;;;;;;-2.27;100.00;98966.50;10415628;28;20566;-57
2022/03/06 04:40:50;;;;;;;8.30;6.93;;;;;;;-2.23;100.00;98967.22;10429252;28;20049;-57
2022/03/06 04:45:53;;;;;;;8.13;7.30;;;;;;;-2.19;100.00;98960.88;10427309;28;20049;-58
2022/03/06 04:50:56;;;;;;;9.88;7.60;;;;;;;-2.12;100.00;98961.47;10424489;28;20060;-58
2022/03/06 04:56:06;;;;;;;8.20;7.30;;;;;;;-2.05;100.00;98969.06;10419792;28;20070;-59
2022/03/06 05:01:09;;;;;;;8.98;7.78;;;;;;;-2.00;100.00;98976.78;10409445;28;20045;-55
2022/03/06 05:06:12;;;;;;;7.82;7.03;;;;;;;-1.94;100.00;98973.84;10419614;28;20188;-59
2022/03/06 05:11:16;;;;;;;9.80;7.05;;;;;;;-1.91;100.00;98980.78;10421993;28;20052;-57
2022/03/06 05:16:19;;;;;;;8.93;7.07;;;;;;;-1.86;100.00;98969.09;10425268;28;20037;-58
2022/03/06 05:21:23;;;;;;;8.07;6.80;;;;;;;-1.86;100.00;98979.66;10423383;28;20041;-56
2022/03/06 05:26:27;;;;;;;8.35;7.32;;;;;;;-1.89;100.00;98971.88;10423928;28;20863;-57
2022/03/06 05:31:30;;;;;;;8.43;6.90;;;;;;;-1.87;100.00;98974.41;10425286;28;20141;-59
2022/03/06 05:36:33;;;;;;;8.32;7.45;;;;;;;-1.84;100.00;98982.22;10420519;28;20129;-59
2022/03/06 05:41:38;;;;;;;9.43;6.88;;;;;;;-1.87;100.00;98980.56;10428868;28;20047;-57
2022/03/06 05:46:41;;;;;;;9.65;6.93;;;;;;;-1.96;100.00;98977.47;10427675;28;20044;-56
2022/03/06 05:51:44;;;;;;;8.57;7.68;;;;;;;-1.98;100.00;98980.19;10427654;28;20087;-60
2022/03/06 05:56:49;;;;;;;8.80;7.28;;;;;;;-1.97;100.00;98979.28;10427913;28;20464;-56
2022/03/06 06:01:52;;;;;;;7.93;6.35;;;;;;;-1.97;100.00;98981.91;10426862;28;20187;-56
2022/03/06 06:06:55;;;;;;;7.43;6.63;;;;;;;-1.97;100.00;98987.19;10422470;28;20049;-58
2022/03/06 06:12:00;;;;;;;9.05;6.28;;;;;;;-1.89;100.00;98992.16;10429724;28;20132;-60
2022/03/06 06:17:03;;;;;;;7.80;5.72;;;;;;;-1.86;100.00;98989.34;10424399;28;20145;-60
2022/03/06 06:22:07;;;;;;;7.20;5.47;;;;;;;-1.84;100.00;98986.66;10425156;28;20042;-57
2022/03/06 06:27:11;;;;;;;5.85;5.25;;;;;;;-1.81;100.00;98986.50;10428166;28;20055;-56
2022/03/06 06:32:14;;;;;;;5.70;5.10;;;;;;;-1.80;100.00;99001.41;10428781;28;20043;-54
2022/03/06 06:37:18;;;;;;;6.68;5.40;;;;;;;-1.78;100.00;99003.09;10424319;28;20049;-55
2022/03/06 06:42:23;;;;;;;6.18;4.90;;;;;;;-1.73;100.00;99001.06;10418676;28;20036;-56
2022/03/06 06:47:26;;;;;;;6.28;4.85;;;;;;;-1.71;100.00;99007.16;10422871;28;20041;-57
2022/03/06 06:52:29;;;;;;;6.03;4.68;;;;;;;-1.69;100.00;99003.59;10411642;28;20063;-57
2022/03/06 06:57:34;;;;;;;5.82;4.68;;;;;;;-1.63;100.00;99006.81;10413763;28;20037;-57
2022/03/06 07:02:37;;;;;;;6.38;4.70;;;;;;;-1.59;100.00;99013.66;10408666;28;20378;-57
2022/03/06 07:07:41;;;;;;;6.10;4.57;;;;;;;-1.55;100.00;99014.41;10416075;28;20052;-54
2022/03/06 07:12:48;;;;;;;5.75;4.32;;;;;;;-1.53;100.00;99015.19;10429663;28;20077;-62
2022/03/06 07:17:52;;;;;;;6.57;4.78;;;;;;;-1.49;100.00;99023.81;10428864;28;20096;-62
2022/03/06 07:22:56;;;;;;;5.40;4.20;;;;;;;-1.45;100.00;99018.31;10422950;28;20041;-64
2022/03/06 07:28:00;;;;;;;5.38;4.43;;;;;;;-1.37;100.00;99033.84;10421953;28;20129;-61
2022/03/06 07:33:04;;;;;;;5.97;4.13;;;;;;;-1.28;100.00;99037.81;10423652;28;20112;-57
2022/03/06 07:38:08;;;;;;;6.40;4.18;;;;;;;-1.20;100.00;99046.28;10424504;28;20127;-59
2022/03/06 07:43:12;;;;;;;4.95;3.90;;;;;;;-1.11;100.00;99027.31;10421865;28;20107;-62
2022/03/06 07:48:16;;;;;;;5.68;3.80;;;;;;;-1.01;100.00;99035.69;10426167;28;20055;-62
2022/03/06 07:53:19;;;;;;;4.80;3.83;;;;;;;-0.91;100.00;99036.09;10420533;28;20129;-63
2022/03/06 07:58:23;;;;;;;6.07;3.60;;;;;;;-0.81;100.00;99032.06;10421600;28;20145;-60
2022/03/06 08:03:27;;;;;;;4.95;3.80;;;;;;;-0.69;100.00;99046.50;10420815;28;20328;-59
2022/03/06 08:08:30;;;;;;;5.28;3.78;;;;;;;-0.60;100.00;99041.69;10415874;28;20125;-55
2022/03/06 08:13:35;;;;;;;4.35;3.63;;;;;;;-0.50;100.00;99040.28;10421659;28;20074;-57
2022/03/06 08:18:39;;;;;;;4.25;3.17;;;;;;;-0.40;100.00;99038.88;10410176;28;20080;-56
2022/03/06 08:23:42;;;;;;;5.00;3.50;;;;;;;-0.32;100.00;99042.03;10413719;28;20053;-59
2022/03/06 08:28:46;;;;;;;5.18;3.55;;;;;;;-0.24;100.00;99039.00;10410380;28;20048;-57
2022/03/06 08:33:52;;;;;;;5.28;3.55;;;;;;;-0.14;100.00;99042.03;10409106;28;20045;-60
2022/03/06 08:38:55;;;;;;;5.65;3.40;;;;;;;-0.09;100.00;99042.66;10414472;28;20042;-59
2022/03/06 08:44:00;;;;;;;4.43;2.97;;;;;;;0.02;100.00;99049.19;10426160;28;20434;-60
2022/03/06 08:49:03;;;;;;;4.63;3.38;;;;;;;0.13;100.00;99042.38;10405138;28;20041;-59
2022/03/06 08:54:06;;;;;;;4.90;3.63;;;;;;;0.20;100.00;99050.03;10407391;28;20092;-60
2022/03/06 08:59:10;;;;;;;5.05;3.10;;;;;;;0.24;100.00;99052.44;10413821;28;20128;-60
2022/03/06 09:04:13;;;;;;;5.05;3.33;;;;;;;0.32;100.00;99051.16;10413597;28;20449;-60
2022/03/06 09:09:16;;;;;;;4.05;3.15;;;;;;;0.37;100.00;99052.63;10410121;28;20697;-59
2022/03/06 09:14:21;;;;;;;5.97;2.80;;;;;;;0.45;100.00;99060.19;10417330;28;20124;-60
2022/03/06 09:19:24;;;;;;;3.80;2.90;;;;;;;0.49;100.00;99061.75;10412139;28;20561;-60
2022/03/06 09:24:27;;;;;;;3.97;2.70;;;;;;;0.50;100.00;99063.47;10413132;28;20120;-60
2022/03/06 09:29:31;;;;;;;4.05;2.90;;;;;;;0.53;100.00;99073.88;10416150;28;20156;-60
2022/03/06 09:34:34;;;;;;;5.85;2.88;;;;;;;0.55;100.00;99068.53;10412720;28;20161;-60
2022/03/06 09:39:38;;;;;;;4.05;2.92;;;;;;;0.56;100.00;99073.72;10414870;28;20120;-61
2022/03/06 09:44:44;;;;;;;3.65;2.70;;;;;;;0.52;100.00;99066.03;10414000;28;20534;-59
2022/03/06 09:49:48;;;;;;;5.05;3.05;;;;;;;0.69;100.00;99062.47;10413763;28;20048;-61
2022/03/06 09:54:51;;;;;;;3.30;2.80;;;;;;;0.83;100.00;99070.53;10404292;28;20049;-60
2022/03/06 09:59:55;;;;;;;3.92;2.63;;;;;;;0.86;100.00;99059.75;10409317;28;20478;-60
2022/03/06 10:04:59;;;;;;;4.63;2.60;;;;;;;0.91;100.00;99062.16;10407780;28;20067;-60
2022/03/06 10:10:03;;;;;;;3.83;2.72;;;;;;;0.98;100.00;99068.84;10417098;28;20096;-60
2022/03/06 10:15:10;;;;;;;3.33;2.58;;;;;;;1.06;100.00;99063.94;10418782;28;20077;-61
2022/03/06 10:20:15;;;;;;;3.15;2.50;;;;;;;1.14;100.00;99063.53;10410660;28;20718;-61
2022/03/06 10:25:20;;;;;;;5.78;2.80;;;;;;;1.29;100.00;99058.31;10411106;28;20126;-61
2022/03/06 10:30:28;;;;;;;4.13;2.63;;;;;;;1.34;100.00;99064.22;10416465;28;20060;-61
2022/03/06 10:35:33;;;;;;;3.28;2.30;;;;;;;1.38;100.00;99065.75;10413742;28;20099;-61
2022/03/06 10:40:39;;;;;;;2.47;2.28;;;;;;;1.39;100.00;99059.50;10419910;28;20125;-60
2022/03/06 10:45:43;;;;;;;3.58;2.80;;;;;;;1.52;100.00;99068.47;10421153;28;20466;-60
2022/03/06 10:50:46;;;;;;;4.32;2.72;;;;;;;1.60;100.00;99060.06;10416864;28;20107;-61
2022/03/06 10:55:50;;;;;;;3.47;2.58;;;;;;;1.67;100.00;99053.44;10419038;28;20132;-61
2022/03/06 11:00:55;;;;;;;3.97;2.30;;;;;;;1.82;100.00;99051.69;10418969;28;20475;-58
2022/03/06 11:06:01;;;;;;;2.67;2.00;;;;;;;1.89;100.00;99038.91;10415079;28;20048;-59
2022/03/06 11:11:06;;;;;;;3.92;2.33;;;;;;;1.94;100.00;99041.31;10424422;28;20049;-59
2022/03/06 11:16:11;;;;;;;2.30;1.92;;;;;;;2.05;100.00;99038.00;10441064;28;20053;-59
2022/03/06 11:21:30;;;;;;;2.60;2.13;;;;;;;2.03;100.00;99030.13;10465850;28;20056;-60
2022/03/06 11:27:19;;;;;;;3.08;1.80;;;;;;;2.00;100.00;99030.28;10456190;28;20055;-62
2022/03/06 11:32:28;;;;;;;2.72;2.00;;;;;;;1.80;100.00;99023.50;10410283;28;20046;-62
2022/03/06 11:37:46;;;;;;;3.33;2.00;;;;;;;1.58;96.67;99038.03;10411221;28;20441;-62
2022/03/06 11:42:58;;;;;;;2.00;1.73;;;;;;;1.76;100.00;99032.63;10415378;28;20132;-61
2022/03/06 11:48:02;;;;;;;3.00;2.30;;;;;;;1.63;100.00;99021.84;10400184;28;20061;-62
2022/03/06 11:53:39;;;;;;;3.83;2.42;;;;;;;1.69;100.00;99018.84;10417981;28;20100;-65
2022/03/06 11:58:55;;;;;;;3.72;2.20;;;;;;;1.73;100.00;99017.69;10427430;28;20097;-64
2022/03/06 12:04:08;;;;;;;2.95;2.40;;;;;;;1.80;100.00;99011.09;10414005;28;20470;-61
2022/03/06 12:09:13;;;;;;;3.00;2.38;;;;;;;1.71;100.00;99011.59;10410478;28;20054;-65
2022/03/06 12:14:19;;;;;;;3.40;2.60;;;;;;;1.76;100.00;99001.59;10409216;28;20065;-66
2022/03/06 12:19:24;;;;;;;2.72;2.35;;;;;;;1.61;100.00;99007.78;10409110;28;20463;-64
2022/03/06 12:24:30;;;;;;;4.05;2.40;;;;;;;1.62;100.00;99009.50;10419480;28;20128;-63
2022/03/06 12:30:01;;;;;;;2.70;2.50;;;;;;;1.61;100.00;99002.47;10419633;28;21101;-63
2022/03/06 12:35:08;;;;;;;3.22;2.92;;;;;;;1.34;100.00;99008.47;10406603;28;20068;-62
2022/03/06 12:40:13;;;;;;;3.17;2.88;;;;;;;1.22;100.00;99002.06;10405563;28;20128;-63
2022/03/06 12:45:19;;;;;;;3.30;2.90;;;;;;;1.09;100.00;99001.91;10405984;28;20104;-62
2022/03/06 12:50:25;;;;;;;3.30;3.00;;;;;;;0.99;100.00;98998.06;10407825;28;20102;-62
2022/03/06 12:55:28;;;;;;;6.57;2.95;;;;;;;0.79;100.00;99005.31;10411732;28;20037;-63
2022/03/06 13:00:34;;;;;;;3.88;2.65;;;;;;;0.73;100.00;99000.38;10413502;28;20060;-62
2022/03/06 13:05:39;;;;;;;4.18;2.80;;;;;;;0.64;100.00;98995.56;10408191;28;20037;-61
2022/03/06 13:10:43;;;;;;;2.53;2.30;;;;;;;0.61;100.00;98994.78;10411352;28;20544;-62
2022/03/06 13:15:50;;;;;;;4.00;2.05;;;;;;;0.66;100.00;98996.31;10405016;28;20041;-62
2022/03/06 13:20:56;;;;;;;3.17;2.17;;;;;;;0.55;100.00;98987.16;10408776;28;20033;-63
2022/03/06 13:26:00;;;;;;;2.85;2.05;;;;;;;0.47;100.00;98989.38;10404429;28;20053;-62
2022/03/06 13:31:03;;;;;;;2.17;1.95;;;;;;;0.36;100.00;98992.59;10409931;28;20072;-62
2022/03/06 13:36:15;;;;;;;4.57;2.97;;;;;;;0.24;100.00;98994.13;10405016;28;20539;-62
2022/03/06 13:41:19;;;;;;;5.93;3.78;;;;;;;0.07;100.00;99002.97;10412837;28;20072;-62
2022/03/06 13:46:23;;;;;;;7.90;3.90;;;;;;;-0.05;100.00;98998.31;10414802;28;20498;-62
2022/03/06 13:51:30;;;;;;;4.45;2.70;;;;;;;-0.06;100.00;98997.44;10414079;28;20076;-62
2022/03/06 13:56:37;;;;;;;3.50;2.55;;;;;;;-0.07;100.00;99011.66;10416901;28;20141;-64
2022/03/06 14:01:40;;;;;;;2.28;1.98;;;;;;;-0.06;100.00;99002.75;10412502;28;20052;-64
2022/03/06 14:06:47;;;;;;;1.88;1.48;;;;;;;-0.17;100.00;99015.69;10415020;28;20111;-62
2022/03/06 14:11:52;;;;;;;1.52;1.42;;;;;;;-0.13;100.00;99009.31;10423967;28;20139;-64
2022/03/06 14:17:03;;;;;;;1.90;1.50;;;;;;;-0.19;100.00;99007.00;10428913;28;20037;-65
2022/03/06 14:22:16;;;;;;;2.20;1.67;;;;;;;-0.02;100.00;99004.31;10421943;28;20072;-65
2022/03/06 14:27:19;;;;;;;3.08;1.85;;;;;;;-0.01;100.00;99006.03;10434922;28;20285;-64
2022/03/06 14:32:22;;;;;;;1.95;1.70;;;;;;;-0.04;100.00;99006.19;10428835;28;20124;-64
2022/03/06 14:37:27;;;;;;;2.13;1.60;;;;;;;-0.03;100.00;99002.59;10429734;28;20045;-64
2022/03/06 14:42:30;;;;;;;1.73;1.50;;;;;;;-0.14;100.00;99007.59;10416940;28;20119;-63
2022/03/06 14:47:53;;;;;;;2.67;1.65;;;;;;;-0.23;100.00;99006.25;10363526;22;20106;-62
2022/03/06 14:52:57;;;;;;;2.35;1.58;;;;;;;-0.22;100.00;99009.78;10330434;28;20098;-66
2022/03/06 14:58:01;;;;;;;2.03;1.83;;;;;;;-0.37;100.00;99004.31;10338124;28;20578;-63
2022/03/06 15:03:04;;;;;;;1.83;1.35;;;;;;;-0.55;100.00;99015.84;10354621;28;20118;-62
2022/03/06 15:08:08;;;;;;;2.17;1.55;;;;;;;-0.67;100.00;99020.81;10333907;28;20100;-61
2022/03/06 15:13:12;;;;;;;1.60;1.27;;;;;;;-0.75;100.00;99020.31;10323198;28;20060;-65
2022/03/06 15:18:15;;;;;;;2.10;1.45;;;;;;;-0.81;100.00;99016.19;10323944;28;20839;-65
2022/03/06 15:23:19;;;;;;;3.88;1.60;;;;;;;-0.88;100.00;99021.88;10323262;28;20066;-62
2022/03/06 15:28:23;;;;;;;1.45;1.35;;;;;;;-0.94;100.00;99010.66;10329062;28;20046;-60
2022/03/06 15:33:26;;;;;;;1.27;1.02;;;;;;;-1.02;100.00;99018.09;10334217;28;20062;-59
2022/03/06 15:38:31;;;;;;;1.80;1.50;;;;;;;-1.01;100.00;99014.53;10350126;28;20085;-63
2022/03/06 15:43:34;;;;;;;3.47;1.60;;;;;;;-1.03;100.00;99015.50;10323027;28;20042;-64
2022/03/06 15:48:37;;;;;;;3.13;1.27;;;;;;;-1.06;100.00;99013.88;10323920;28;20043;-54
2022/03/06 15:53:42;;;;;;;2.95;1.35;;;;;;;-1.10;100.00;99017.59;10320592;28;20529;-57
2022/03/06 15:58:45;;;;;;;1.20;1.10;;;;;;;-1.13;100.00;99010.66;10325369;28;20093;-65
2022/03/06 16:03:49;;;;;;;1.92;1.35;;;;;;;-1.15;100.00;99019.59;10325069;28;20129;-61
2022/03/06 16:08:53;;;;;;;2.33;1.20;;;;;;;-1.19;100.00;99023.31;10327752;28;20066;-62
2022/03/06 16:13:56;;;;;;;1.77;1.33;;;;;;;-1.23;100.00;99034.97;10328070;28;20126;-64
2022/03/06 16:18:59;;;;;;;1.98;1.30;;;;;;;-1.27;100.00;99019.25;10327145;28;20133;-62
2022/03/06 16:24:04;;;;;;;1.67;1.20;;;;;;;-1.27;100.00;99021.91;10324061;28;20042;-64
2022/03/06 16:29:08;;;;;;;1.52;1.30;;;;;;;-1.31;100.00;99030.06;10324062;28;20081;-63
2022/03/06 16:34:12;;;;;;;2.88;1.27;;;;;;;-1.45;100.00;99035.94;10327877;28;20121;-62
2022/03/06 16:39:16;;;;;;;1.98;1.40;;;;;;;-1.48;100.00;99033.47;10325504;28;20133;-62
2022/03/06 16:44:19;;;;;;;1.70;1.25;;;;;;;-1.58;100.00;99049.72;10321722;28;20402;-60
2022/03/06 16:49:22;;;;;;;1.52;1.15;;;;;;;-1.62;100.00;99056.09;10350319;28;20050;-60
2022/03/06 16:54:27;;;;;;;1.25;1.13;;;;;;;-1.62;100.00;99044.66;10340569;28;20177;-62
2022/03/06 16:59:31;;;;;;;2.10;1.40;;;;;;;-1.66;100.00;99049.22;10325864;28;20048;-60
2022/03/06 17:04:35;;;;;;;1.50;1.40;;;;;;;-1.78;100.00;99055.03;10335344;28;20278;-59
2022/03/06 17:09:40;;;;;;;2.80;1.70;;;;;;;-1.87;100.00;99051.88;10336006;28;20560;-61
2022/03/06 17:14:43;;;;;;;1.77;1.60;;;;;;;-1.89;100.00;99059.00;10327577;28;20485;-61
2022/03/06 17:19:47;;;;;;;1.75;1.52;;;;;;;-1.88;100.00;99059.84;10338457;28;20481;-60
2022/03/06 17:24:51;;;;;;;2.33;1.83;;;;;;;-1.97;100.00;99066.41;10331497;28;20520;-59
2022/03/06 17:29:54;;;;;;;2.75;1.80;;;;;;;-1.96;100.00;99061.97;10334898;28;20046;-57
2022/03/06 17:34:58;;;;;;;3.20;2.08;;;;;;;-1.98;100.00;99069.09;10332435;28;20049;-61
2022/03/06 17:40:03;;;;;;;2.33;2.10;;;;;;;-2.01;100.00;99056.91;10341665;28;20137;-60
2022/03/06 17:45:10;;;;;;;2.88;2.35;;;;;;;-2.00;100.00;99074.47;10310681;28;20046;-59
2022/03/06 17:50:13;;;;;;;3.47;2.50;;;;;;;-2.02;100.00;99073.66;10374326;28;20154;-60
2022/03/06 17:55:19;;;;;;;2.90;2.60;;;;;;;-2.02;100.00;99079.81;10346601;28;20636;-61
2022/03/06 18:00:22;;;;;;;3.03;2.40;;;;;;;-1.99;100.00;99077.94;10360978;28;20553;-62
2022/03/06 18:05:25;;;;;;;2.75;2.47;;;;;;;-1.94;100.00;99078.63;10348486;28;20050;-60
2022/03/06 18:10:38;;;;;;;3.45;2.65;;;;;;;-1.96;100.00;99086.63;10336826;28;20530;-60
2022/03/06 18:15:42;;;;;;;2.92;2.60;;;;;;;-1.89;100.00;99089.88;10332416;28;20470;-63
2022/03/06 18:21:14;;;;;;;2.88;2.45;;;;;;;-1.86;100.00;99090.59;10332752;28;20537;-63
2022/03/06 18:26:20;;;;;;;3.75;2.92;;;;;;;-1.79;100.00;99085.03;10344615;28;20120;-62
2022/03/06 18:31:36;;;;;;;4.85;4.15;;;;;;;-1.77;100.00;99099.03;10348066;28;20038;-57
2022/03/06 18:36:41;;;;;;;2.92;2.60;;;;;;;-1.78;100.00;99095.53;10348550;28;20080;-60
2022/03/06 18:41:46;;;;;;;4.05;2.67;;;;;;;-1.79;100.00;99100.88;10354617;28;20054;-59
2022/03/06 18:46:50;;;;;;;4.88;3.08;;;;;;;-1.81;100.00;99102.72;10328725;28;20060;-56
2022/03/06 18:51:54;;;;;;;3.80;3.40;;;;;;;-1.78;100.00;99094.66;10328211;28;20562;-63
2022/03/06 18:57:24;;;;;;;4.90;3.53;;;;;;;-1.69;100.00;99102.19;10335637;28;20069;-62
2022/03/06 19:02:27;;;;;;;6.95;3.45;;;;;;;-1.69;100.00;99104.81;10329645;28;20058;-59
2022/03/06 19:07:31;;;;;;;4.82;3.92;;;;;;;-1.64;100.00;99107.25;10329699;28;20051;-59
2022/03/06 19:12:36;;;;;;;4.88;3.72;;;;;;;-1.62;100.00;99111.56;10347999;28;20498;-59
2022/03/06 19:17:43;;;;;;;5.07;4.40;;;;;;;-1.60;100.00;99101.81;10255027;28;20041;-58
2022/03/06 19:22:48;;;;;;;5.45;4.00;;;;;;;-1.65;100.00;99109.06;10332309;28;20064;-62
2022/03/06 19:27:55;;;;;;;4.32;3.92;;;;;;;-1.61;100.00;99110.66;10331161;28;20046;-60
2022/03/06 19:33:08;;;;;;;5.30;4.78;;;;;;;-1.58;100.00;99114.94;10343325;28;20439;-62
2022/03/06 19:38:12;;;;;;;4.38;3.92;;;;;;;-1.58;100.00;99110.50;10327610;28;20161;-60
2022/03/06 19:43:19;;;;;;;5.20;3.90;;;;;;;-1.57;100.00;99106.09;10321623;28;20487;-63
2022/03/06 19:48:23;;;;;;;4.40;3.78;;;;;;;-1.55;100.00;99115.66;10327755;28;20050;-60
2022/03/06 19:53:27;;;;;;;4.78;4.07;;;;;;;-1.50;100.00;99117.25;10323416;28;20050;-65
2022/03/06 19:58:32;;;;;;;4.50;4.10;;;;;;;-1.52;100.00;99113.81;10324335;28;20046;-70
2022/03/06 20:03:35;;;;;;;5.93;4.28;;;;;;;-1.53;100.00;99118.25;10325621;28;20130;-58
2022/03/06 20:08:39;;;;;;;4.57;3.40;;;;;;;-1.50;100.00;99119.88;10334460;28;20273;-65
2022/03/06 20:13:45;;;;;;;4.30;3.72;;;;;;;-1.49;100.00;99124.25;10343109;28;20069;-65
2022/03/06 20:18:49;;;;;;;4.55;3.70;;;;;;;-1.50;100.00;99122.53;10329098;28;20054;-61
2022/03/06 20:23:52;;;;;;;4.28;3.88;;;;;;;-1.50;100.00;99131.31;10327579;28;20045;-64
2022/03/06 20:28:57;;;;;;;5.60;4.30;;;;;;;-1.49;100.00;99130.38;10338724;28;20061;-63
2022/03/06 20:34:00;;;;;;;4.70;4.20;;;;;;;-1.49;100.00;99132.19;10322895;28;20128;-66
2022/03/06 20:39:04;;;;;;;5.10;4.47;;;;;;;-1.57;100.00;99140.44;10330305;28;20535;-63
2022/03/06 20:44:09;;;;;;;7.60;4.72;;;;;;;-1.50;100.00;99141.88;10327913;22;20114;-79
2022/03/06 20:49:12;;;;;;;4.63;4.22;;;;;;;-1.48;100.00;99145.31;10267939;28;20085;-78
2022/03/06 20:54:19;;;;;;;5.20;4.70;;;;;;;-1.49;100.00;99145.38;10290856;28;20102;-77
2022/03/06 20:59:24;;;;;;;5.00;4.20;;;;;;;-1.50;100.00;99148.97;10290853;28;20046;-79
2022/03/06 21:04:29;;;;;;;4.85;4.35;;;;;;;-1.50;100.00;99148.97;10271718;28;20064;-77
2022/03/06 21:09:32;;;;;;;4.80;4.40;;;;;;;-1.50;100.00;99148.97;10268868;28;20046;-77
2022/03/06 21:14:37;;;;;;;6.38;4.53;;;;;;;-1.49;100.00;99158.59;10273394;28;20126;-77
2022/03/06 21:19:40;;;;;;;5.03;4.40;;;;;;;-1.53;100.00;99155.25;10290194;28;20069;-77
2022/03/06 21:24:46;;;;;;;4.80;4.40;;;;;;;-1.49;100.00;99161.25;10272324;28;20510;-78
2022/03/06 21:29:50;;;;;;;4.85;4.45;;;;;;;-1.45;100.00;99146.97;10288540;28;20065;-78
2022/03/06 21:34:54;;;;;;;5.15;4.55;;;;;;;-1.47;100.00;99159.41;10291561;28;20047;-78
2022/03/06 21:39:57;;;;;;;7.80;4.88;;;;;;;-1.49;100.00;99155.97;10289381;28;20050;-78
2022/03/06 21:45:01;;;;;;;5.32;4.82;;;;;;;-1.52;100.00;99162.22;10286435;28;20047;-77
2022/03/06 21:50:05;;;;;;;6.32;4.90;;;;;;;-1.53;100.00;99164.94;10288371;28;20418;-77
2022/03/06 21:55:10;;;;;;;5.35;4.85;;;;;;;-1.52;100.00;99156.94;10272052;28;20053;-77
2022/03/06 22:00:15;;;;;;;5.50;5.00;;;;;;;-1.56;100.00;99172.06;10273947;28;20074;-78
2022/03/06 22:05:19;;;;;;;5.47;4.97;;;;;;;-1.56;100.00;99166.78;10291179;28;20130;-76
2022/03/06 22:10:22;;;;;;;5.45;4.95;;;;;;;-1.55;100.00;99173.78;10290949;28;20094;-76
2022/03/06 22:15:27;;;;;;;5.68;5.00;;;;;;;-1.54;100.00;99174.66;10273179;28;20041;-77
2022/03/06 22:20:32;;;;;;;6.20;5.55;;;;;;;-1.53;100.00;99164.94;10292866;28;20047;-77
2022/03/06 22:25:40;;;;;;;5.20;4.63;;;;;;;-1.53;100.00;99167.59;10279341;28;20578;-77
2022/03/06 22:30:45;;;;;;;5.20;4.70;;;;;;;-1.52;100.00;99174.59;10299366;28;20058;-77
2022/03/06 22:35:49;;;;;;;5.15;4.63;;;;;;;-1.51;100.00;99166.59;10298224;28;20117;-77
2022/03/06 22:40:52;;;;;;;5.13;4.63;;;;;;;-1.48;100.00;99165.63;10299036;28;20051;-77
2022/03/06 22:45:56;;;;;;;5.00;4.50;;;;;;;-1.46;100.00;99161.09;10273923;28;20086;-76
2022/03/06 22:50:59;;;;;;;5.53;4.40;;;;;;;-1.45;100.00;99158.41;10296264;28;20110;-77
2022/03/06 22:56:02;;;;;;;4.88;4.38;;;;;;;-1.44;100.00;99151.31;10294136;28;20047;-78
2022/03/06 23:01:20;;;;;;;4.95;4.50;;;;;;;-1.42;100.00;99162.69;10295500;28;20070;-78
2022/03/06 23:12:35;;;;;;;4.88;4.30;;;;;;;-1.42;100.00;99167.97;10290224;28;20042;-77
2022/03/06 23:17:43;;;;;;;5.18;4.68;;;;;;;-1.42;100.00;99160.03;10306404;28;20051;-78
2022/03/06 23:22:46;;;;;;;5.10;4.45;;;;;;;-1.40;100.00;99171.41;10295129;28;20047;-78
2022/03/06 23:27:49;;;;;;;5.22;4.63;;;;;;;-1.39;100.00;99167.84;10294312;28;20042;-78
2022/03/06 23:32:53;;;;;;;4.93;4.40;;;;;;;-1.38;100.00;99173.97;10295160;28;20046;-78